Deimos — 3EOQ6 — position and weather

sailwx.info

Track history (hours):
 
Tides and Currents Weather Stations Pressure Air Temp Water Temp Dewpoint Dewpoint Depression Visibility Wind Speed Wind Dir Waves Ship Positions

Deimos

Last reported at 2017-Oct-13 22:23 UTC. Time now 2017-Oct-20 03:36 UTC.
Position N 27°44' W 015°19'.

Length 94 m; draft 6.6 m.

Type: Cargo ship. MMSI: 352779000.

Date/timePositionNaut miles runAvg speedWind from/ knotsBaromVisibWave heightAir tempDewpointWater temp
2017-Oct-13 22:23N 27°44' W 015°19'410.6
2017-Oct-13 22:01N 27°48' W 015°17'5 9.9
2017-Oct-13 21:30N 27°53' W 015°16'510.3
2017-Oct-13 21:00N 27°58' W 015°18'510.3
2017-Oct-13 20:30N 28°02' W 015°21'5 9.7
2017-Oct-13 20:00N 28°07' W 015°23'2 4.3
2017-Oct-13 19:28N 28°09' W 015°24'0 0.0
2017-Oct-13 18:58N 28°09' W 015°24'0 0.0
2017-Oct-13 18:28N 28°09' W 015°24'0 0.0
2017-Oct-13 17:58N 28°09' W 015°24'0 0.0
2017-Oct-13 17:28N 28°09' W 015°24'0 0.0
2017-Oct-13 16:58N 28°09' W 015°24'0 0.0
2017-Oct-13 16:28N 28°09' W 015°24'0 0.0
2017-Oct-13 15:58N 28°09' W 015°24'0 0.0
2017-Oct-13 15:28N 28°09' W 015°24'0 0.0
2017-Oct-13 14:58N 28°09' W 015°24'0 0.0
2017-Oct-13 14:28N 28°09' W 015°24'0 0.0
2017-Oct-13 13:58N 28°09' W 015°24'0 0.0
2017-Oct-13 13:28N 28°09' W 015°24'0 0.0
2017-Oct-13 12:58N 28°09' W 015°24'0 0.0
2017-Oct-13 12:19N 28°09' W 015°24'0 0.0
2017-Oct-13 11:49N 28°09' W 015°24'0 0.0
2017-Oct-13 11:19N 28°09' W 015°24'0 0.0
2017-Oct-13 10:49N 28°09' W 015°24'0 0.0
2017-Oct-13 10:19N 28°09' W 015°24'0 0.0
2017-Oct-13 09:52N 28°09' W 015°24'0 0.0
2017-Oct-13 09:22N 28°09' W 015°24'0 0.0
2017-Oct-13 08:52N 28°09' W 015°24'0 0.0
2017-Oct-13 08:22N 28°09' W 015°24'0 0.0
2017-Oct-13 07:52N 28°09' W 015°24'0 0.0
2017-Oct-13 07:24N 28°09' W 015°24'0 1.1
2017-Oct-13 07:00N 28°08' W 015°25'3 5.7
2017-Oct-13 06:30N 28°10' W 015°22'510.1
2017-Oct-13 06:00N 28°14' W 015°19'510.1
2017-Oct-13 05:30N 28°19' W 015°16'510.7
2017-Oct-13 05:00N 28°23' W 015°14'511.0
2017-Oct-13 04:30N 28°28' W 015°11'611.3
2017-Oct-13 04:00N 28°33' W 015°08'510.8
2017-Oct-13 03:30N 28°38' W 015°05'510.5
2017-Oct-13 03:00N 28°43' W 015°02'510.1
2017-Oct-13 02:30N 28°47' W 014°60'5 9.3
2017-Oct-13 02:00N 28°51' W 014°57'5 9.3
2017-Oct-13 01:30N 28°55' W 014°55'5 9.6
2017-Oct-13 01:00N 28°60' W 014°52'5 9.8
2017-Oct-13 00:30N 29°04' W 014°50'510.2
2017-Oct-13 00:00N 29°09' W 014°47'510.0
2017-Oct-12 23:30N 29°13' W 014°44'5 9.9
2017-Oct-12 22:57N 29°18' W 014°41'4 9.8
2017-Oct-12 22:30N 29°21' W 014°39'510.1
2017-Oct-12 22:00N 29°26' W 014°36'510.0
2017-Oct-12 21:30N 29°31' W 014°34'5 9.8
2017-Oct-12 21:00N 29°35' W 014°32'510.0
2017-Oct-12 20:30N 29°40' W 014°29'510.1
2017-Oct-12 20:00N 29°44' W 014°26'510.2
2017-Oct-12 19:30N 29°49' W 014°24'6 9.9
2017-Oct-12 18:53N 29°54' W 014°20'4 9.6
2017-Oct-12 18:30N 29°57' W 014°18'5 9.5
2017-Oct-12 18:00N 30°02' W 014°16'5 9.2
2017-Oct-12 17:30N 30°06' W 014°13'15 9.3
2017-Oct-12 15:51N 30°19' W 014°05'3 9.4
2017-Oct-12 15:30N 30°22' W 014°03'5 9.5
2017-Oct-12 15:00N 30°26' W 014°01'5 9.5
2017-Oct-12 14:30N 30°31' W 013°58'5 9.6
2017-Oct-12 14:00N 30°35' W 013°56'5 9.5
2017-Oct-12 13:30N 30°39' W 013°54'11 9.2
2017-Oct-12 12:21N 30°49' W 013°49'3 9.5
2017-Oct-12 12:00N 30°52' W 013°48'5 9.5
2017-Oct-12 11:30N 30°57' W 013°46'13 9.6
2017-Oct-12 10:11N 31°08' W 013°38'1810.1
2017-Oct-12 08:24N 31°24' W 013°29'1310.9
2017-Oct-12 07:12N 31°35' W 013°20'510.5
2017-Oct-12 06:43N 31°39' W 013°17'210.3
2017-Oct-12 06:30N 31°41' W 013°16'510.5
2017-Oct-12 06:00N 31°45' W 013°13'610.6
2017-Oct-12 05:27N 31°51' W 013°10'610.4
2017-Oct-12 04:51N 31°56' W 013°06'410.4
2017-Oct-12 04:26N 32°00' W 013°04'1210.4
2017-Oct-12 03:19N 32°11' W 012°58'28510.4
2017-Oct-10 23:59N 36°23' W 010°19'510.6
2017-Oct-10 23:30N 36°28' W 010°17'510.6
2017-Oct-10 23:00N 36°33' W 010°13'510.6
2017-Oct-10 22:30N 36°37' W 010°10'510.9
2017-Oct-10 22:00N 36°42' W 010°07'510.8
2017-Oct-10 21:30N 36°47' W 010°04'510.4
2017-Oct-10 21:00N 36°52' W 010°01'510.4
2017-Oct-10 20:30N 36°56' W 009°58'510.3
2017-Oct-10 20:00N 37°01' W 009°55'510.5
2017-Oct-10 19:30N 37°05' W 009°52'510.7
2017-Oct-10 19:00N 37°10' W 009°49'510.5
2017-Oct-10 18:30N 37°15' W 009°46'510.7
2017-Oct-10 18:00N 37°20' W 009°43'510.7
2017-Oct-10 17:30N 37°24' W 009°40'510.4
2017-Oct-10 17:00N 37°29' W 009°37'510.3
2017-Oct-10 16:30N 37°33' W 009°34'510.5
2017-Oct-10 16:00N 37°38' W 009°31'510.3
2017-Oct-10 15:30N 37°43' W 009°28'510.1
2017-Oct-10 15:00N 37°47' W 009°25'1010.4
2017-Oct-10 14:00N 37°56' W 009°19'510.7
2017-Oct-10 13:30N 38°01' W 009°16'510.8
2017-Oct-10 13:00N 38°06' W 009°13'510.3
2017-Oct-10 12:30N 38°11' W 009°11'510.4
2017-Oct-10 12:00N 38°15' W 009°07'510.5
2017-Oct-10 11:30N 38°20' W 009°04'510.9
2017-Oct-10 11:00N 38°25' W 009°01'4 8.9
2017-Oct-10 10:30N 38°28' W 008°57'4 8.9
2017-Oct-10 10:00N 38°31' W 008°53'0 0.0
2017-Oct-10 09:27N 38°31' W 008°53'0 0.0
2017-Oct-10 08:51N 38°31' W 008°53'0 0.0
2017-Oct-10 08:30N 38°31' W 008°53'0 0.0
2017-Oct-10 07:57N 38°31' W 008°53'0 0.0
2017-Oct-10 07:30N 38°31' W 008°53'0 0.0
2017-Oct-10 07:00N 38°31' W 008°53'0 0.0
2017-Oct-10 06:30N 38°31' W 008°53'0 0.0
2017-Oct-10 06:00N 38°31' W 008°53'0 0.0
2017-Oct-10 05:30N 38°31' W 008°53'0 0.0
2017-Oct-10 05:00N 38°31' W 008°53'0 0.0
2017-Oct-10 04:27N 38°31' W 008°53'0 0.0
2017-Oct-10 04:00N 38°31' W 008°53'0 0.0
2017-Oct-10 03:27N 38°31' W 008°53'0 0.0
2017-Oct-10 02:57N 38°31' W 008°53'0 0.0
2017-Oct-10 02:30N 38°31' W 008°53'0 0.0
2017-Oct-10 02:00N 38°31' W 008°53'0 0.0
2017-Oct-10 01:30N 38°31' W 008°53'0 0.0
2017-Oct-10 00:54N 38°31' W 008°53'0 0.0
2017-Oct-10 00:24N 38°31' W 008°53'0 0.0
2017-Oct-09 23:51N 38°31' W 008°53'0 0.0
2017-Oct-09 23:30N 38°31' W 008°53'0 0.0
2017-Oct-09 22:51N 38°31' W 008°53'0 0.0
2017-Oct-09 22:27N 38°31' W 008°53'0 0.0
2017-Oct-09 21:57N 38°31' W 008°53'0 0.0
2017-Oct-09 21:30N 38°31' W 008°53'0 0.0
2017-Oct-09 21:00N 38°31' W 008°53'0 0.0
2017-Oct-09 20:30N 38°31' W 008°53'0 0.0
2017-Oct-09 20:00N 38°31' W 008°53'0 0.0
2017-Oct-09 19:30N 38°31' W 008°53'0 0.0
2017-Oct-09 18:54N 38°31' W 008°53'0 0.0
2017-Oct-09 18:30N 38°31' W 008°53'0 0.0
2017-Oct-09 18:00N 38°31' W 008°53'0 0.0
2017-Oct-09 17:30N 38°31' W 008°53'0 0.0
2017-Oct-09 17:00N 38°31' W 008°53'0 0.0
2017-Oct-09 16:30N 38°31' W 008°53'0 0.0
2017-Oct-09 16:00N 38°31' W 008°53'0 0.0
2017-Oct-09 15:30N 38°31' W 008°53'0 0.0
2017-Oct-09 15:00N 38°31' W 008°53'0 0.0
2017-Oct-09 14:30N 38°31' W 008°53'0 0.0
2017-Oct-09 14:00N 38°31' W 008°53'0 0.0
2017-Oct-09 13:30N 38°31' W 008°53'0 0.9
2017-Oct-09 13:00N 38°31' W 008°53'0 0.1
2017-Oct-09 12:28N 38°31' W 008°53'0 0.0
2017-Oct-09 11:58N 38°31' W 008°53'0 0.2
2017-Oct-09 11:28N 38°31' W 008°53'0 0.1
2017-Oct-09 10:58N 38°31' W 008°53'0 0.0
2017-Oct-09 10:25N 38°31' W 008°53'0 0.0
2017-Oct-09 09:55N 38°31' W 008°53'0 0.0
2017-Oct-09 09:25N 38°31' W 008°53'0 0.0
2017-Oct-09 08:58N 38°31' W 008°53'0 0.0
2017-Oct-09 08:28N 38°31' W 008°53'0 0.0
2017-Oct-09 07:58N 38°31' W 008°53'0 0.0
2017-Oct-09 07:25N 38°31' W 008°53'0 0.0
2017-Oct-09 06:58N 38°31' W 008°53'0 0.0
2017-Oct-09 06:28N 38°31' W 008°53'0 0.2
2017-Oct-09 05:58N 38°31' W 008°53'0 0.0
2017-Oct-09 05:28N 38°31' W 008°53'0 0.0
2017-Oct-09 04:58N 38°31' W 008°53'0 0.0
2017-Oct-09 04:28N 38°31' W 008°53'0 0.0
2017-Oct-09 03:58N 38°31' W 008°53'0 0.0
2017-Oct-09 03:22N 38°31' W 008°53'0 0.0
2017-Oct-09 02:58N 38°31' W 008°53'0 0.0
2017-Oct-09 02:28N 38°31' W 008°53'0 0.0
2017-Oct-09 01:55N 38°31' W 008°53'0 0.1
2017-Oct-09 01:28N 38°31' W 008°53'0 0.0
2017-Oct-09 00:58N 38°31' W 008°53'0 0.0
2017-Oct-09 00:22N 38°31' W 008°53'0 0.0
2017-Oct-08 23:58N 38°31' W 008°53'0 0.0
2017-Oct-08 23:28N 38°31' W 008°53'0 0.2
2017-Oct-08 22:58N 38°31' W 008°53'0 0.1
2017-Oct-08 22:28N 38°31' W 008°53'0 0.0
2017-Oct-08 21:55N 38°31' W 008°53'0 0.0
2017-Oct-08 18:22N 38°31' W 008°53'0 0.4
2017-Oct-08 17:58N 38°31' W 008°53'0 0.2
2017-Oct-08 17:25N 38°31' W 008°53'0 0.0
2017-Oct-08 16:52N 38°31' W 008°53'0 0.0
2017-Oct-08 16:22N 38°31' W 008°53'0 0.0
2017-Oct-08 15:58N 38°31' W 008°53'0 0.0
2017-Oct-08 15:28N 38°31' W 008°53'0 0.0
2017-Oct-08 14:58N 38°31' W 008°53'0 0.0
2017-Oct-08 14:28N 38°31' W 008°53'0 0.2
2017-Oct-08 13:58N 38°31' W 008°53'0 0.0
2017-Oct-08 13:28N 38°31' W 008°53'0 0.0
2017-Oct-08 12:58N 38°31' W 008°53'0 0.0
2017-Oct-08 12:28N 38°31' W 008°53'0 0.0
2017-Oct-08 11:58N 38°31' W 008°53'0 0.0
2017-Oct-08 11:22N 38°31' W 008°53'0 0.2
2017-Oct-08 10:58N 38°31' W 008°53'0 0.2
2017-Oct-08 10:25N 38°31' W 008°53'0 0.0
2017-Oct-08 09:52N 38°31' W 008°53'0 0.0
2017-Oct-08 05:31N 38°31' W 008°53'0 0.4
2017-Oct-08 05:25N 38°31' W 008°53'0 0.0
2017-Oct-08 03:31N 38°31' W 008°53'0 0.0
2017-Oct-08 03:19N 38°31' W 008°53'0 0.0
2017-Oct-08 02:52N 38°31' W 008°53'0 0.0
2017-Oct-08 02:28N 38°31' W 008°53'0 0.0
2017-Oct-08 01:58N 38°31' W 008°53'0 0.1
2017-Oct-08 01:28N 38°31' W 008°53'0 0.0
2017-Oct-08 01:01N 38°31' W 008°53'0 0.0
2017-Oct-08 00:31N 38°31' W 008°53'0 0.0
2017-Oct-08 00:00N 38°31' W 008°53'0 0.0
2017-Oct-07 23:30N 38°31' W 008°53'0 0.0
2017-Oct-07 23:00N 38°31' W 008°53'0 0.1
2017-Oct-07 22:30N 38°31' W 008°53'0 0.0
2017-Oct-07 20:48N 38°31' W 008°53'0 0.0
2017-Oct-07 20:30N 38°31' W 008°53'0 0.1
2017-Oct-07 20:00N 38°31' W 008°53'0 0.0
2017-Oct-07 19:30N 38°31' W 008°53'0 0.0
2017-Oct-07 18:57N 38°31' W 008°53'0 0.0
2017-Oct-07 18:15N 38°31' W 008°53'0 0.0
2017-Oct-07 18:00N 38°31' W 008°53'0 0.1
2017-Oct-07 17:24N 38°31' W 008°53'0 0.2
2017-Oct-07 16:57N 38°31' W 008°53'0 0.2
2017-Oct-07 16:30N 38°31' W 008°53'0 0.0
2017-Oct-07 11:18N 38°31' W 008°53'0 0.0
2017-Oct-07 10:48N 38°31' W 008°53'0 0.1
2017-Oct-07 10:21N 38°31' W 008°53'0 0.2
2017-Oct-07 10:00N 38°31' W 008°53'0 0.1
2017-Oct-07 09:27N 38°31' W 008°53'0 0.0
2017-Oct-07 08:51N 38°31' W 008°53'0 0.0
2017-Oct-07 08:24N 38°31' W 008°53'0 0.0
2017-Oct-07 07:48N 38°31' W 008°53'0 0.0
2017-Oct-07 07:03N 38°31' W 008°53'0 0.0
2017-Oct-07 06:54N 38°31' W 008°53'0 0.0
2017-Oct-07 06:30N 38°31' W 008°53'0 0.0
2017-Oct-07 06:00N 38°31' W 008°53'0 0.0
2017-Oct-07 05:30N 38°31' W 008°53'0 0.0
2017-Oct-07 04:57N 38°31' W 008°53'0 0.1
2017-Oct-07 04:30N 38°31' W 008°53'0 0.2
2017-Oct-07 04:00N 38°31' W 008°53'0 0.0
2017-Oct-07 03:09N 38°31' W 008°53'0 0.0
2017-Oct-07 03:00N 38°31' W 008°53'0 0.0
2017-Oct-07 02:30N 38°31' W 008°53'0 0.0
2017-Oct-07 01:51N 38°31' W 008°53'0 0.0
2017-Oct-07 01:30N 38°31' W 008°53'0 0.0
2017-Oct-07 01:00N 38°31' W 008°53'0 0.0
2017-Oct-07 00:30N 38°31' W 008°53'0 0.0
2017-Oct-06 23:57N 38°31' W 008°53'0 0.0
2017-Oct-06 23:30N 38°31' W 008°53'0 0.0
2017-Oct-06 22:57N 38°31' W 008°53'0 0.0
2017-Oct-06 22:30N 38°31' W 008°53'0 0.0
2017-Oct-06 22:00N 38°31' W 008°53'0 0.2
2017-Oct-06 21:30N 38°31' W 008°53'0 0.0
2017-Oct-06 21:00N 38°31' W 008°53'0 0.0
2017-Oct-06 20:30N 38°31' W 008°53'0 0.0
2017-Oct-06 19:51N 38°31' W 008°53'0 0.0
2017-Oct-06 19:30N 38°31' W 008°53'0 0.0
2017-Oct-06 19:00N 38°31' W 008°53'0 0.0
2017-Oct-06 18:24N 38°31' W 008°53'0 0.0
2017-Oct-06 17:57N 38°31' W 008°53'0 0.1
2017-Oct-06 17:30N 38°31' W 008°53'0 0.1
2017-Oct-06 17:00N 38°31' W 008°53'0 0.2
2017-Oct-06 16:30N 38°31' W 008°53'0 0.1
2017-Oct-06 16:00N 38°31' W 008°53'0 0.0
2017-Oct-06 15:30N 38°31' W 008°53'0 0.0
2017-Oct-06 15:00N 38°31' W 008°53'0 0.0
2017-Oct-06 14:27N 38°31' W 008°53'0 0.0
2017-Oct-06 13:54N 38°31' W 008°53'0 0.0
2017-Oct-06 11:27N 38°31' W 008°53'0 0.0
2017-Oct-06 10:42N 38°31' W 008°53'0 0.0
2017-Oct-06 10:30N 38°31' W 008°53'0 0.0
2017-Oct-06 09:54N 38°31' W 008°53'0 0.2
2017-Oct-06 09:29N 38°31' W 008°53'2 3.2
2017-Oct-06 09:00N 38°30' W 008°55'4 8.5
2017-Oct-06 08:30N 38°27' W 008°59'2 3.8
2017-Oct-06 08:00N 38°25' W 008°60'0 0.9
2017-Oct-06 07:30N 38°25' W 009°00'2 4.6
2017-Oct-06 07:00N 38°23' W 009°02'4 8.5
2017-Oct-06 06:30N 38°20' W 009°05'5 9.1
2017-Oct-06 06:00N 38°17' W 009°09'5 9.6
2017-Oct-06 05:30N 38°14' W 009°14'4 7.1
2017-Oct-06 05:00N 38°11' W 009°17'3 5.9
2017-Oct-06 04:30N 38°08' W 009°18'3 5.8
2017-Oct-06 04:00N 38°05' W 009°19'3 6.0
2017-Oct-06 03:30N 38°02' W 009°20'3 5.9
2017-Oct-06 03:00N 37°59' W 009°20'3 5.8
2017-Oct-06 02:30N 37°56' W 009°20'3 5.5
2017-Oct-06 02:00N 37°54' W 009°20'3 5.7
2017-Oct-06 01:30N 37°51' W 009°20'3 5.9
2017-Oct-06 01:00N 37°48' W 009°20'3 6.0
2017-Oct-06 00:30N 37°45' W 009°20'3 6.1
2017-Oct-06 00:00N 37°42' W 009°20'3 5.8
2017-Oct-05 23:30N 37°39' W 009°20'3 5.7
2017-Oct-05 23:00N 37°36' W 009°20'3 5.8
2017-Oct-05 22:30N 37°33' W 009°20'3 5.9
2017-Oct-05 22:00N 37°30' W 009°21'3 5.8
2017-Oct-05 21:30N 37°27' W 009°21'3 5.9
2017-Oct-05 21:00N 37°24' W 009°22'3 6.1
2017-Oct-05 20:30N 37°21' W 009°22'5 9.3
2017-Oct-05 20:00N 37°20' W 009°28'200 8.9
2017-Oct-04 21:24N 34°15' W 011°01'3 8.9
2017-Oct-04 21:00N 34°11' W 011°03'4 8.8
2017-Oct-04 20:30N 34°07' W 011°04'5 8.7
2017-Oct-04 19:59N 34°03' W 011°06'4 9.0
2017-Oct-04 19:30N 33°59' W 011°07'4 8.8
2017-Oct-04 19:00N 33°54' W 011°08'33 9.5
2017-Oct-04 15:29N 33°22' W 011°20'4 9.4
2017-Oct-04 15:00N 33°18' W 011°21'5 9.4
2017-Oct-04 14:30N 33°14' W 011°23'5 9.2
2017-Oct-04 14:00N 33°09' W 011°25'62 9.3
2017-Oct-04 07:18N 32°10' W 011°46'  
Track history (hours):
 
Tides and Currents Weather Stations Pressure Air Temp Water Temp Dewpoint Dewpoint Depression Visibility Wind Speed Wind Dir Waves Ship Positions

Deimos

Last reported at 2017-Oct-13 22:23 UTC. Time now 2017-Oct-20 03:36 UTC.
Position N 27°44' W 015°19'.

Length 94 m; draft 6.6 m.

Type: Cargo ship. MMSI: 352779000.

Date/timePositionNaut miles runAvg speedWind from/ knotsBaromVisibWave heightAir tempDewpointWater temp
2017-Oct-13 22:23N 27°44' W 015°19'410.6
2017-Oct-13 22:01N 27°48' W 015°17'5 9.9
2017-Oct-13 21:30N 27°53' W 015°16'510.3
2017-Oct-13 21:00N 27°58' W 015°18'510.3
2017-Oct-13 20:30N 28°02' W 015°21'5 9.7
2017-Oct-13 20:00N 28°07' W 015°23'2 4.3
2017-Oct-13 19:28N 28°09' W 015°24'0 0.0
2017-Oct-13 18:58N 28°09' W 015°24'0 0.0
2017-Oct-13 18:28N 28°09' W 015°24'0 0.0
2017-Oct-13 17:58N 28°09' W 015°24'0 0.0
2017-Oct-13 17:28N 28°09' W 015°24'0 0.0
2017-Oct-13 16:58N 28°09' W 015°24'0 0.0
2017-Oct-13 16:28N 28°09' W 015°24'0 0.0
2017-Oct-13 15:58N 28°09' W 015°24'0 0.0
2017-Oct-13 15:28N 28°09' W 015°24'0 0.0
2017-Oct-13 14:58N 28°09' W 015°24'0 0.0
2017-Oct-13 14:28N 28°09' W 015°24'0 0.0
2017-Oct-13 13:58N 28°09' W 015°24'0 0.0
2017-Oct-13 13:28N 28°09' W 015°24'0 0.0
2017-Oct-13 12:58N 28°09' W 015°24'0 0.0
2017-Oct-13 12:19N 28°09' W 015°24'0 0.0
2017-Oct-13 11:49N 28°09' W 015°24'0 0.0
2017-Oct-13 11:19N 28°09' W 015°24'0 0.0
2017-Oct-13 10:49N 28°09' W 015°24'0 0.0
2017-Oct-13 10:19N 28°09' W 015°24'0 0.0
2017-Oct-13 09:52N 28°09' W 015°24'0 0.0
2017-Oct-13 09:22N 28°09' W 015°24'0 0.0
2017-Oct-13 08:52N 28°09' W 015°24'0 0.0
2017-Oct-13 08:22N 28°09' W 015°24'0 0.0
2017-Oct-13 07:52N 28°09' W 015°24'0 0.0
2017-Oct-13 07:24N 28°09' W 015°24'0 1.1
2017-Oct-13 07:00N 28°08' W 015°25'3 5.7
2017-Oct-13 06:30N 28°10' W 015°22'510.1
2017-Oct-13 06:00N 28°14' W 015°19'510.1
2017-Oct-13 05:30N 28°19' W 015°16'510.7
2017-Oct-13 05:00N 28°23' W 015°14'511.0
2017-Oct-13 04:30N 28°28' W 015°11'611.3
2017-Oct-13 04:00N 28°33' W 015°08'510.8
2017-Oct-13 03:30N 28°38' W 015°05'510.5
2017-Oct-13 03:00N 28°43' W 015°02'510.1
2017-Oct-13 02:30N 28°47' W 014°60'5 9.3
2017-Oct-13 02:00N 28°51' W 014°57'5 9.3
2017-Oct-13 01:30N 28°55' W 014°55'5 9.6
2017-Oct-13 01:00N 28°60' W 014°52'5 9.8
2017-Oct-13 00:30N 29°04' W 014°50'510.2
2017-Oct-13 00:00N 29°09' W 014°47'510.0
2017-Oct-12 23:30N 29°13' W 014°44'5 9.9
2017-Oct-12 22:57N 29°18' W 014°41'4 9.8
2017-Oct-12 22:30N 29°21' W 014°39'510.1
2017-Oct-12 22:00N 29°26' W 014°36'510.0
2017-Oct-12 21:30N 29°31' W 014°34'5 9.8
2017-Oct-12 21:00N 29°35' W 014°32'510.0
2017-Oct-12 20:30N 29°40' W 014°29'510.1
2017-Oct-12 20:00N 29°44' W 014°26'510.2
2017-Oct-12 19:30N 29°49' W 014°24'6 9.9
2017-Oct-12 18:53N 29°54' W 014°20'4 9.6
2017-Oct-12 18:30N 29°57' W 014°18'5 9.5
2017-Oct-12 18:00N 30°02' W 014°16'5 9.2
2017-Oct-12 17:30N 30°06' W 014°13'15 9.3
2017-Oct-12 15:51N 30°19' W 014°05'3 9.4
2017-Oct-12 15:30N 30°22' W 014°03'5 9.5
2017-Oct-12 15:00N 30°26' W 014°01'5 9.5
2017-Oct-12 14:30N 30°31' W 013°58'5 9.6
2017-Oct-12 14:00N 30°35' W 013°56'5 9.5
2017-Oct-12 13:30N 30°39' W 013°54'11 9.2
2017-Oct-12 12:21N 30°49' W 013°49'3 9.5
2017-Oct-12 12:00N 30°52' W 013°48'5 9.5
2017-Oct-12 11:30N 30°57' W 013°46'13 9.6
2017-Oct-12 10:11N 31°08' W 013°38'1810.1
2017-Oct-12 08:24N 31°24' W 013°29'1310.9
2017-Oct-12 07:12N 31°35' W 013°20'510.5
2017-Oct-12 06:43N 31°39' W 013°17'210.3
2017-Oct-12 06:30N 31°41' W 013°16'510.5
2017-Oct-12 06:00N 31°45' W 013°13'610.6
2017-Oct-12 05:27N 31°51' W 013°10'610.4
2017-Oct-12 04:51N 31°56' W 013°06'410.4
2017-Oct-12 04:26N 32°00' W 013°04'1210.4
2017-Oct-12 03:19N 32°11' W 012°58'28510.4
2017-Oct-10 23:59N 36°23' W 010°19'510.6
2017-Oct-10 23:30N 36°28' W 010°17'510.6
2017-Oct-10 23:00N 36°33' W 010°13'510.6
2017-Oct-10 22:30N 36°37' W 010°10'510.9
2017-Oct-10 22:00N 36°42' W 010°07'510.8
2017-Oct-10 21:30N 36°47' W 010°04'510.4
2017-Oct-10 21:00N 36°52' W 010°01'510.4
2017-Oct-10 20:30N 36°56' W 009°58'510.3
2017-Oct-10 20:00N 37°01' W 009°55'510.5
2017-Oct-10 19:30N 37°05' W 009°52'510.7
2017-Oct-10 19:00N 37°10' W 009°49'510.5
2017-Oct-10 18:30N 37°15' W 009°46'510.7
2017-Oct-10 18:00N 37°20' W 009°43'510.7
2017-Oct-10 17:30N 37°24' W 009°40'510.4
2017-Oct-10 17:00N 37°29' W 009°37'510.3
2017-Oct-10 16:30N 37°33' W 009°34'510.5
2017-Oct-10 16:00N 37°38' W 009°31'510.3
2017-Oct-10 15:30N 37°43' W 009°28'510.1
2017-Oct-10 15:00N 37°47' W 009°25'1010.4
2017-Oct-10 14:00N 37°56' W 009°19'510.7
2017-Oct-10 13:30N 38°01' W 009°16'510.8
2017-Oct-10 13:00N 38°06' W 009°13'510.3
2017-Oct-10 12:30N 38°11' W 009°11'510.4
2017-Oct-10 12:00N 38°15' W 009°07'510.5
2017-Oct-10 11:30N 38°20' W 009°04'510.9
2017-Oct-10 11:00N 38°25' W 009°01'4 8.9
2017-Oct-10 10:30N 38°28' W 008°57'4 8.9
2017-Oct-10 10:00N 38°31' W 008°53'0 0.0
2017-Oct-10 09:27N 38°31' W 008°53'0 0.0
2017-Oct-10 08:51N 38°31' W 008°53'0 0.0
2017-Oct-10 08:30N 38°31' W 008°53'0 0.0
2017-Oct-10 07:57N 38°31' W 008°53'0 0.0
2017-Oct-10 07:30N 38°31' W 008°53'0 0.0
2017-Oct-10 07:00N 38°31' W 008°53'0 0.0
2017-Oct-10 06:30N 38°31' W 008°53'0 0.0
2017-Oct-10 06:00N 38°31' W 008°53'0 0.0
2017-Oct-10 05:30N 38°31' W 008°53'0 0.0
2017-Oct-10 05:00N 38°31' W 008°53'0 0.0
2017-Oct-10 04:27N 38°31' W 008°53'0 0.0
2017-Oct-10 04:00N 38°31' W 008°53'0 0.0
2017-Oct-10 03:27N 38°31' W 008°53'0 0.0
2017-Oct-10 02:57N 38°31' W 008°53'0 0.0
2017-Oct-10 02:30N 38°31' W 008°53'0 0.0
2017-Oct-10 02:00N 38°31' W 008°53'0 0.0
2017-Oct-10 01:30N 38°31' W 008°53'0 0.0
2017-Oct-10 00:54N 38°31' W 008°53'0 0.0
2017-Oct-10 00:24N 38°31' W 008°53'0 0.0
2017-Oct-09 23:51N 38°31' W 008°53'0 0.0
2017-Oct-09 23:30N 38°31' W 008°53'0 0.0
2017-Oct-09 22:51N 38°31' W 008°53'0 0.0
2017-Oct-09 22:27N 38°31' W 008°53'0 0.0
2017-Oct-09 21:57N 38°31' W 008°53'0 0.0
2017-Oct-09 21:30N 38°31' W 008°53'0 0.0
2017-Oct-09 21:00N 38°31' W 008°53'0 0.0
2017-Oct-09 20:30N 38°31' W 008°53'0 0.0
2017-Oct-09 20:00N 38°31' W 008°53'0 0.0
2017-Oct-09 19:30N 38°31' W 008°53'0 0.0
2017-Oct-09 18:54N 38°31' W 008°53'0 0.0
2017-Oct-09 18:30N 38°31' W 008°53'0 0.0
2017-Oct-09 18:00N 38°31' W 008°53'0 0.0
2017-Oct-09 17:30N 38°31' W 008°53'0 0.0
2017-Oct-09 17:00N 38°31' W 008°53'0 0.0
2017-Oct-09 16:30N 38°31' W 008°53'0 0.0
2017-Oct-09 16:00N 38°31' W 008°53'0 0.0
2017-Oct-09 15:30N 38°31' W 008°53'0 0.0
2017-Oct-09 15:00N 38°31' W 008°53'0 0.0
2017-Oct-09 14:30N 38°31' W 008°53'0 0.0
2017-Oct-09 14:00N 38°31' W 008°53'0 0.0
2017-Oct-09 13:30N 38°31' W 008°53'0 0.9
2017-Oct-09 13:00N 38°31' W 008°53'0 0.1
2017-Oct-09 12:28N 38°31' W 008°53'0 0.0
2017-Oct-09 11:58N 38°31' W 008°53'0 0.2
2017-Oct-09 11:28N 38°31' W 008°53'0 0.1
2017-Oct-09 10:58N 38°31' W 008°53'0 0.0
2017-Oct-09 10:25N 38°31' W 008°53'0 0.0
2017-Oct-09 09:55N 38°31' W 008°53'0 0.0
2017-Oct-09 09:25N 38°31' W 008°53'0 0.0
2017-Oct-09 08:58N 38°31' W 008°53'0 0.0
2017-Oct-09 08:28N 38°31' W 008°53'0 0.0
2017-Oct-09 07:58N 38°31' W 008°53'0 0.0
2017-Oct-09 07:25N 38°31' W 008°53'0 0.0
2017-Oct-09 06:58N 38°31' W 008°53'0 0.0
2017-Oct-09 06:28N 38°31' W 008°53'0 0.2
2017-Oct-09 05:58N 38°31' W 008°53'0 0.0
2017-Oct-09 05:28N 38°31' W 008°53'0 0.0
2017-Oct-09 04:58N 38°31' W 008°53'0 0.0
2017-Oct-09 04:28N 38°31' W 008°53'0 0.0
2017-Oct-09 03:58N 38°31' W 008°53'0 0.0
2017-Oct-09 03:22N 38°31' W 008°53'0 0.0
2017-Oct-09 02:58N 38°31' W 008°53'0 0.0
2017-Oct-09 02:28N 38°31' W 008°53'0 0.0
2017-Oct-09 01:55N 38°31' W 008°53'0 0.1
2017-Oct-09 01:28N 38°31' W 008°53'0 0.0
2017-Oct-09 00:58N 38°31' W 008°53'0 0.0
2017-Oct-09 00:22N 38°31' W 008°53'0 0.0
2017-Oct-08 23:58N 38°31' W 008°53'0 0.0
2017-Oct-08 23:28N 38°31' W 008°53'0 0.2
2017-Oct-08 22:58N 38°31' W 008°53'0 0.1
2017-Oct-08 22:28N 38°31' W 008°53'0 0.0
2017-Oct-08 21:55N 38°31' W 008°53'0 0.0
2017-Oct-08 18:22N 38°31' W 008°53'0 0.4
2017-Oct-08 17:58N 38°31' W 008°53'0 0.2
2017-Oct-08 17:25N 38°31' W 008°53'0 0.0
2017-Oct-08 16:52N 38°31' W 008°53'0 0.0
2017-Oct-08 16:22N 38°31' W 008°53'0 0.0
2017-Oct-08 15:58N 38°31' W 008°53'0 0.0
2017-Oct-08 15:28N 38°31' W 008°53'0 0.0
2017-Oct-08 14:58N 38°31' W 008°53'0 0.0
2017-Oct-08 14:28N 38°31' W 008°53'0 0.2
2017-Oct-08 13:58N 38°31' W 008°53'0 0.0
2017-Oct-08 13:28N 38°31' W 008°53'0 0.0
2017-Oct-08 12:58N 38°31' W 008°53'0 0.0
2017-Oct-08 12:28N 38°31' W 008°53'0 0.0
2017-Oct-08 11:58N 38°31' W 008°53'0 0.0
2017-Oct-08 11:22N 38°31' W 008°53'0 0.2
2017-Oct-08 10:58N 38°31' W 008°53'0 0.2
2017-Oct-08 10:25N 38°31' W 008°53'0 0.0
2017-Oct-08 09:52N 38°31' W 008°53'0 0.0
2017-Oct-08 05:31N 38°31' W 008°53'0 0.4
2017-Oct-08 05:25N 38°31' W 008°53'0 0.0
2017-Oct-08 03:31N 38°31' W 008°53'0 0.0
2017-Oct-08 03:19N 38°31' W 008°53'0 0.0
2017-Oct-08 02:52N 38°31' W 008°53'0 0.0
2017-Oct-08 02:28N 38°31' W 008°53'0 0.0
2017-Oct-08 01:58N 38°31' W 008°53'0 0.1
2017-Oct-08 01:28N 38°31' W 008°53'0 0.0
2017-Oct-08 01:01N 38°31' W 008°53'0 0.0
2017-Oct-08 00:31N 38°31' W 008°53'0 0.0
2017-Oct-08 00:00N 38°31' W 008°53'0 0.0
2017-Oct-07 23:30N 38°31' W 008°53'0 0.0
2017-Oct-07 23:00N 38°31' W 008°53'0 0.1
2017-Oct-07 22:30N 38°31' W 008°53'0 0.0
2017-Oct-07 20:48N 38°31' W 008°53'0 0.0
2017-Oct-07 20:30N 38°31' W 008°53'0 0.1
2017-Oct-07 20:00N 38°31' W 008°53'0 0.0
2017-Oct-07 19:30N 38°31' W 008°53'0 0.0
2017-Oct-07 18:57N 38°31' W 008°53'0 0.0
2017-Oct-07 18:15N 38°31' W 008°53'0 0.0
2017-Oct-07 18:00N 38°31' W 008°53'0 0.1
2017-Oct-07 17:24N 38°31' W 008°53'0 0.2
2017-Oct-07 16:57N 38°31' W 008°53'0 0.2
2017-Oct-07 16:30N 38°31' W 008°53'0 0.0
2017-Oct-07 11:18N 38°31' W 008°53'0 0.0
2017-Oct-07 10:48N 38°31' W 008°53'0 0.1
2017-Oct-07 10:21N 38°31' W 008°53'0 0.2
2017-Oct-07 10:00N 38°31' W 008°53'0 0.1
2017-Oct-07 09:27N 38°31' W 008°53'0 0.0
2017-Oct-07 08:51N 38°31' W 008°53'0 0.0
2017-Oct-07 08:24N 38°31' W 008°53'0 0.0
2017-Oct-07 07:48N 38°31' W 008°53'0 0.0
2017-Oct-07 07:03N 38°31' W 008°53'0 0.0
2017-Oct-07 06:54N 38°31' W 008°53'0 0.0
2017-Oct-07 06:30N 38°31' W 008°53'0 0.0
2017-Oct-07 06:00N 38°31' W 008°53'0 0.0
2017-Oct-07 05:30N 38°31' W 008°53'0 0.0
2017-Oct-07 04:57N 38°31' W 008°53'0 0.1
2017-Oct-07 04:30N 38°31' W 008°53'0 0.2
2017-Oct-07 04:00N 38°31' W 008°53'0 0.0
2017-Oct-07 03:09N 38°31' W 008°53'0 0.0
2017-Oct-07 03:00N 38°31' W 008°53'0 0.0
2017-Oct-07 02:30N 38°31' W 008°53'0 0.0
2017-Oct-07 01:51N 38°31' W 008°53'0 0.0
2017-Oct-07 01:30N 38°31' W 008°53'0 0.0
2017-Oct-07 01:00N 38°31' W 008°53'0 0.0
2017-Oct-07 00:30N 38°31' W 008°53'0 0.0
2017-Oct-06 23:57N 38°31' W 008°53'0 0.0
2017-Oct-06 23:30N 38°31' W 008°53'0 0.0
2017-Oct-06 22:57N 38°31' W 008°53'0 0.0
2017-Oct-06 22:30N 38°31' W 008°53'0 0.0
2017-Oct-06 22:00N 38°31' W 008°53'0 0.2
2017-Oct-06 21:30N 38°31' W 008°53'0 0.0
2017-Oct-06 21:00N 38°31' W 008°53'0 0.0
2017-Oct-06 20:30N 38°31' W 008°53'0 0.0
2017-Oct-06 19:51N 38°31' W 008°53'0 0.0
2017-Oct-06 19:30N 38°31' W 008°53'0 0.0
2017-Oct-06 19:00N 38°31' W 008°53'0 0.0
2017-Oct-06 18:24N 38°31' W 008°53'0 0.0
2017-Oct-06 17:57N 38°31' W 008°53'0 0.1
2017-Oct-06 17:30N 38°31' W 008°53'0 0.1
2017-Oct-06 17:00N 38°31' W 008°53'0 0.2
2017-Oct-06 16:30N 38°31' W 008°53'0 0.1
2017-Oct-06 16:00N 38°31' W 008°53'0 0.0
2017-Oct-06 15:30N 38°31' W 008°53'0 0.0
2017-Oct-06 15:00N 38°31' W 008°53'0 0.0
2017-Oct-06 14:27N 38°31' W 008°53'0 0.0
2017-Oct-06 13:54N 38°31' W 008°53'0 0.0
2017-Oct-06 11:27N 38°31' W 008°53'0 0.0
2017-Oct-06 10:42N 38°31' W 008°53'0 0.0
2017-Oct-06 10:30N 38°31' W 008°53'0 0.0
2017-Oct-06 09:54N 38°31' W 008°53'0 0.2
2017-Oct-06 09:29N 38°31' W 008°53'2 3.2
2017-Oct-06 09:00N 38°30' W 008°55'4 8.5
2017-Oct-06 08:30N 38°27' W 008°59'2 3.8
2017-Oct-06 08:00N 38°25' W 008°60'0 0.9
2017-Oct-06 07:30N 38°25' W 009°00'2 4.6
2017-Oct-06 07:00N 38°23' W 009°02'4 8.5
2017-Oct-06 06:30N 38°20' W 009°05'5 9.1
2017-Oct-06 06:00N 38°17' W 009°09'5 9.6
2017-Oct-06 05:30N 38°14' W 009°14'4 7.1
2017-Oct-06 05:00N 38°11' W 009°17'3 5.9
2017-Oct-06 04:30N 38°08' W 009°18'3 5.8
2017-Oct-06 04:00N 38°05' W 009°19'3 6.0
2017-Oct-06 03:30N 38°02' W 009°20'3 5.9
2017-Oct-06 03:00N 37°59' W 009°20'3 5.8
2017-Oct-06 02:30N 37°56' W 009°20'3 5.5
2017-Oct-06 02:00N 37°54' W 009°20'3 5.7
2017-Oct-06 01:30N 37°51' W 009°20'3 5.9
2017-Oct-06 01:00N 37°48' W 009°20'3 6.0
2017-Oct-06 00:30N 37°45' W 009°20'3 6.1
2017-Oct-06 00:00N 37°42' W 009°20'3 5.8
2017-Oct-05 23:30N 37°39' W 009°20'3 5.7
2017-Oct-05 23:00N 37°36' W 009°20'3 5.8
2017-Oct-05 22:30N 37°33' W 009°20'3 5.9
2017-Oct-05 22:00N 37°30' W 009°21'3 5.8
2017-Oct-05 21:30N 37°27' W 009°21'3 5.9
2017-Oct-05 21:00N 37°24' W 009°22'3 6.1
2017-Oct-05 20:30N 37°21' W 009°22'5 9.3
2017-Oct-05 20:00N 37°20' W 009°28'200 8.9
2017-Oct-04 21:24N 34°15' W 011°01'3 8.9
2017-Oct-04 21:00N 34°11' W 011°03'4 8.8
2017-Oct-04 20:30N 34°07' W 011°04'5 8.7
2017-Oct-04 19:59N 34°03' W 011°06'4 9.0
2017-Oct-04 19:30N 33°59' W 011°07'4 8.8
2017-Oct-04 19:00N 33°54' W 011°08'33 9.5
2017-Oct-04 15:29N 33°22' W 011°20'4 9.4
2017-Oct-04 15:00N 33°18' W 011°21'5 9.4
2017-Oct-04 14:30N 33°14' W 011°23'5 9.2
2017-Oct-04 14:00N 33°09' W 011°25'62 9.3
2017-Oct-04 07:18N 32°10' W 011°46'  

Dump ship's entire track history